sensor_id;sensor_type;location;lat;lon;timestamp;P1;durP1;ratioP1;P2;durP2;ratioP2
15183;SDS011;7693;49.266;7.104;2023-03-21T00:00:13;22.43;;;10.13;;
15183;SDS011;7693;49.266;7.104;2023-03-21T00:02:40;44.10;;;18.83;;
15183;SDS011;7693;49.266;7.104;2023-03-21T00:05:05;73.00;;;30.37;;
15183;SDS011;7693;49.266;7.104;2023-03-21T00:07:31;12.20;;;5.67;;
15183;SDS011;7693;49.266;7.104;2023-03-21T00:09:57;9.43;;;5.57;;
15183;SDS011;7693;49.266;7.104;2023-03-21T00:12:22;9.13;;;7.40;;
15183;SDS011;7693;49.266;7.104;2023-03-21T00:14:48;11.23;;;6.80;;
15183;SDS011;7693;49.266;7.104;2023-03-21T00:17:14;8.03;;;6.30;;
15183;SDS011;7693;49.266;7.104;2023-03-21T00:19:40;6.03;;;5.10;;
15183;SDS011;7693;49.266;7.104;2023-03-21T00:22:06;9.83;;;7.00;;
15183;SDS011;7693;49.266;7.104;2023-03-21T00:24:32;7.73;;;6.03;;
15183;SDS011;7693;49.266;7.104;2023-03-21T00:26:58;12.33;;;7.53;;
15183;SDS011;7693;49.266;7.104;2023-03-21T00:29:24;59.90;;;27.80;;
15183;SDS011;7693;49.266;7.104;2023-03-21T00:31:49;13.80;;;9.30;;
15183;SDS011;7693;49.266;7.104;2023-03-21T00:34:15;11.47;;;7.40;;
15183;SDS011;7693;49.266;7.104;2023-03-21T00:36:41;14.77;;;7.57;;
15183;SDS011;7693;49.266;7.104;2023-03-21T00:39:06;9.03;;;6.67;;
15183;SDS011;7693;49.266;7.104;2023-03-21T00:41:32;7.93;;;5.87;;
15183;SDS011;7693;49.266;7.104;2023-03-21T00:43:58;10.10;;;6.87;;
15183;SDS011;7693;49.266;7.104;2023-03-21T00:46:23;12.33;;;6.50;;
15183;SDS011;7693;49.266;7.104;2023-03-21T00:48:49;7.40;;;6.63;;
15183;SDS011;7693;49.266;7.104;2023-03-21T00:51:19;6.80;;;5.40;;
15183;SDS011;7693;49.266;7.104;2023-03-21T00:53:50;8.20;;;5.47;;
15183;SDS011;7693;49.266;7.104;2023-03-21T00:56:20;5.80;;;5.20;;
15183;SDS011;7693;49.266;7.104;2023-03-21T00:58:45;10.43;;;6.30;;
15183;SDS011;7693;49.266;7.104;2023-03-21T01:01:11;10.43;;;7.50;;
15183;SDS011;7693;49.266;7.104;2023-03-21T01:03:37;10.60;;;9.30;;
15183;SDS011;7693;49.266;7.104;2023-03-21T01:06:07;13.40;;;10.77;;
15183;SDS011;7693;49.266;7.104;2023-03-21T01:08:38;9.40;;;8.23;;
15183;SDS011;7693;49.266;7.104;2023-03-21T01:11:07;10.80;;;7.50;;
15183;SDS011;7693;49.266;7.104;2023-03-21T01:13:35;11.20;;;7.63;;
15183;SDS011;7693;49.266;7.104;2023-03-21T01:16:00;10.67;;;9.20;;
15183;SDS011;7693;49.266;7.104;2023-03-21T01:18:29;14.83;;;11.80;;
15183;SDS011;7693;49.266;7.104;2023-03-21T01:20:56;14.17;;;11.40;;
15183;SDS011;7693;49.266;7.104;2023-03-21T01:23:23;17.07;;;13.40;;
15183;SDS011;7693;49.266;7.104;2023-03-21T01:25:50;16.77;;;13.53;;
15183;SDS011;7693;49.266;7.104;2023-03-21T01:28:17;16.33;;;13.30;;
15183;SDS011;7693;49.266;7.104;2023-03-21T01:30:44;20.27;;;15.23;;
15183;SDS011;7693;49.266;7.104;2023-03-21T01:33:14;17.30;;;13.17;;
15183;SDS011;7693;49.266;7.104;2023-03-21T01:35:40;16.60;;;10.50;;
15183;SDS011;7693;49.266;7.104;2023-03-21T01:38:06;12.73;;;10.70;;
15183;SDS011;7693;49.266;7.104;2023-03-21T01:40:34;16.10;;;11.20;;
15183;SDS011;7693;49.266;7.104;2023-03-21T01:43:00;16.10;;;12.97;;
15183;SDS011;7693;49.266;7.104;2023-03-21T01:48:28;15.23;;;13.23;;
15183;SDS011;7693;49.266;7.104;2023-03-21T01:50:54;16.23;;;13.97;;
15183;SDS011;7693;49.266;7.104;2023-03-21T01:53:21;15.70;;;13.93;;
15183;SDS011;7693;49.266;7.104;2023-03-21T01:55:53;19.53;;;14.63;;
15183;SDS011;7693;49.266;7.104;2023-03-21T01:58:49;15.60;;;13.53;;
15183;SDS011;7693;49.266;7.104;2023-03-21T02:01:19;15.50;;;13.77;;
15183;SDS011;7693;49.266;7.104;2023-03-21T02:03:46;17.97;;;13.60;;
15183;SDS011;7693;49.266;7.104;2023-03-21T02:06:22;18.10;;;13.87;;
15183;SDS011;7693;49.266;7.104;2023-03-21T02:08:54;19.93;;;14.03;;
15183;SDS011;7693;49.266;7.104;2023-03-21T02:11:20;18.50;;;16.53;;
15183;SDS011;7693;49.266;7.104;2023-03-21T02:13:47;20.67;;;18.47;;
15183;SDS011;7693;49.266;7.104;2023-03-21T02:16:15;24.07;;;18.70;;
15183;SDS011;7693;49.266;7.104;2023-03-21T02:21:23;22.27;;;17.37;;
15183;SDS011;7693;49.266;7.104;2023-03-21T02:24:10;18.70;;;15.73;;
15183;SDS011;7693;49.266;7.104;2023-03-21T02:27:02;20.60;;;15.37;;
15183;SDS011;7693;49.266;7.104;2023-03-21T02:37:57;20.33;;;13.97;;
15183;SDS011;7693;49.266;7.104;2023-03-21T02:40:24;18.47;;;13.77;;
15183;SDS011;7693;49.266;7.104;2023-03-21T02:45:41;18.43;;;13.60;;
15183;SDS011;7693;49.266;7.104;2023-03-21T02:48:14;17.73;;;13.73;;
15183;SDS011;7693;49.266;7.104;2023-03-21T02:50:49;18.93;;;13.63;;
15183;SDS011;7693;49.266;7.104;2023-03-21T02:53:18;16.07;;;13.27;;
15183;SDS011;7693;49.266;7.104;2023-03-21T02:55:45;22.00;;;15.43;;
15183;SDS011;7693;49.266;7.104;2023-03-21T02:58:13;26.27;;;15.10;;
15183;SDS011;7693;49.266;7.104;2023-03-21T03:00:41;21.03;;;16.53;;
15183;SDS011;7693;49.266;7.104;2023-03-21T03:03:09;21.63;;;15.43;;
15183;SDS011;7693;49.266;7.104;2023-03-21T03:05:36;17.97;;;14.67;;
15183;SDS011;7693;49.266;7.104;2023-03-21T03:08:19;15.30;;;13.70;;
15183;SDS011;7693;49.266;7.104;2023-03-21T03:10:59;16.73;;;14.97;;
15183;SDS011;7693;49.266;7.104;2023-03-21T03:19:18;19.53;;;14.63;;
15183;SDS011;7693;49.266;7.104;2023-03-21T03:22:05;17.67;;;13.67;;
15183;SDS011;7693;49.266;7.104;2023-03-21T03:24:38;18.70;;;14.13;;
15183;SDS011;7693;49.266;7.104;2023-03-21T03:27:10;17.83;;;14.47;;
15183;SDS011;7693;49.266;7.104;2023-03-21T03:29:41;16.17;;;13.63;;
15183;SDS011;7693;49.266;7.104;2023-03-21T03:32:11;18.37;;;14.53;;
15183;SDS011;7693;49.266;7.104;2023-03-21T03:34:41;23.60;;;14.43;;
15183;SDS011;7693;49.266;7.104;2023-03-21T03:37:10;18.53;;;13.67;;
15183;SDS011;7693;49.266;7.104;2023-03-21T03:39:41;18.10;;;13.67;;
15183;SDS011;7693;49.266;7.104;2023-03-21T03:42:23;17.63;;;13.83;;
15183;SDS011;7693;49.266;7.104;2023-03-21T03:44:54;19.80;;;12.73;;
15183;SDS011;7693;49.266;7.104;2023-03-21T03:50:06;15.83;;;12.10;;
15183;SDS011;7693;49.266;7.104;2023-03-21T03:52:43;13.63;;;11.60;;
15183;SDS011;7693;49.266;7.104;2023-03-21T03:55:15;14.93;;;10.90;;
15183;SDS011;7693;49.266;7.104;2023-03-21T03:57:42;16.73;;;12.43;;
15183;SDS011;7693;49.266;7.104;2023-03-21T04:00:10;19.53;;;14.60;;
15183;SDS011;7693;49.266;7.104;2023-03-21T04:02:40;19.83;;;14.57;;
15183;SDS011;7693;49.266;7.104;2023-03-21T04:05:06;16.53;;;12.03;;
15183;SDS011;7693;49.266;7.104;2023-03-21T04:07:31;18.20;;;12.83;;
15183;SDS011;7693;49.266;7.104;2023-03-21T04:09:57;19.17;;;14.40;;
15183;SDS011;7693;49.266;7.104;2023-03-21T04:12:23;18.23;;;14.37;;
15183;SDS011;7693;49.266;7.104;2023-03-21T04:14:49;21.57;;;14.40;;
15183;SDS011;7693;49.266;7.104;2023-03-21T04:17:15;18.00;;;14.00;;
15183;SDS011;7693;49.266;7.104;2023-03-21T04:19:41;17.13;;;13.00;;
15183;SDS011;7693;49.266;7.104;2023-03-21T04:22:07;16.17;;;12.50;;
15183;SDS011;7693;49.266;7.104;2023-03-21T04:24:33;17.63;;;12.53;;
15183;SDS011;7693;49.266;7.104;2023-03-21T04:27:01;17.93;;;10.70;;
15183;SDS011;7693;49.266;7.104;2023-03-21T04:29:27;11.80;;;10.27;;
15183;SDS011;7693;49.266;7.104;2023-03-21T04:31:53;13.43;;;10.17;;
15183;SDS011;7693;49.266;7.104;2023-03-21T04:34:19;16.10;;;10.10;;
15183;SDS011;7693;49.266;7.104;2023-03-21T04:36:48;11.37;;;10.27;;
15183;SDS011;7693;49.266;7.104;2023-03-21T04:39:15;13.97;;;9.50;;
15183;SDS011;7693;49.266;7.104;2023-03-21T04:41:41;10.43;;;9.00;;
15183;SDS011;7693;49.266;7.104;2023-03-21T04:44:09;11.77;;;10.57;;
15183;SDS011;7693;49.266;7.104;2023-03-21T04:46:37;12.13;;;8.93;;
15183;SDS011;7693;49.266;7.104;2023-03-21T04:49:03;13.67;;;11.00;;
15183;SDS011;7693;49.266;7.104;2023-03-21T04:51:31;14.03;;;11.23;;
15183;SDS011;7693;49.266;7.104;2023-03-21T05:53:48;17.27;;;13.30;;
15183;SDS011;7693;49.266;7.104;2023-03-21T05:56:14;17.20;;;13.50;;
15183;SDS011;7693;49.266;7.104;2023-03-21T05:58:40;15.47;;;11.67;;
15183;SDS011;7693;49.266;7.104;2023-03-21T06:01:06;14.00;;;9.50;;
15183;SDS011;7693;49.266;7.104;2023-03-21T06:03:31;12.53;;;9.40;;
15183;SDS011;7693;49.266;7.104;2023-03-21T06:05:57;13.83;;;10.90;;
15183;SDS011;7693;49.266;7.104;2023-03-21T06:08:23;16.80;;;10.33;;
15183;SDS011;7693;49.266;7.104;2023-03-21T06:10:48;15.30;;;11.00;;
15183;SDS011;7693;49.266;7.104;2023-03-21T06:13:14;15.00;;;11.10;;
15183;SDS011;7693;49.266;7.104;2023-03-21T06:15:40;12.60;;;10.17;;
15183;SDS011;7693;49.266;7.104;2023-03-21T06:18:05;15.30;;;10.20;;
15183;SDS011;7693;49.266;7.104;2023-03-21T06:20:31;13.67;;;10.03;;
15183;SDS011;7693;49.266;7.104;2023-03-21T06:22:57;9.47;;;8.33;;
15183;SDS011;7693;49.266;7.104;2023-03-21T06:25:22;8.97;;;8.03;;
15183;SDS011;7693;49.266;7.104;2023-03-21T06:27:48;12.13;;;9.03;;
15183;SDS011;7693;49.266;7.104;2023-03-21T06:30:14;8.40;;;7.37;;
15183;SDS011;7693;49.266;7.104;2023-03-21T06:32:40;8.57;;;7.57;;
15183;SDS011;7693;49.266;7.104;2023-03-21T06:35:06;12.07;;;8.43;;
15183;SDS011;7693;49.266;7.104;2023-03-21T06:37:32;11.87;;;8.60;;
15183;SDS011;7693;49.266;7.104;2023-03-21T06:39:57;9.70;;;8.30;;
15183;SDS011;7693;49.266;7.104;2023-03-21T06:42:23;17.17;;;13.50;;
15183;SDS011;7693;49.266;7.104;2023-03-21T06:44:48;10.87;;;8.17;;
15183;SDS011;7693;49.266;7.104;2023-03-21T06:47:14;14.33;;;9.07;;
15183;SDS011;7693;49.266;7.104;2023-03-21T06:49:40;11.43;;;9.30;;
15183;SDS011;7693;49.266;7.104;2023-03-21T06:52:07;14.03;;;10.50;;
15183;SDS011;7693;49.266;7.104;2023-03-21T06:54:33;16.33;;;10.47;;
15183;SDS011;7693;49.266;7.104;2023-03-21T06:56:59;14.50;;;11.20;;
15183;SDS011;7693;49.266;7.104;2023-03-21T06:59:24;13.07;;;11.63;;
15183;SDS011;7693;49.266;7.104;2023-03-21T07:01:50;19.20;;;13.20;;
15183;SDS011;7693;49.266;7.104;2023-03-21T07:04:16;14.87;;;12.60;;
15183;SDS011;7693;49.266;7.104;2023-03-21T07:06:41;27.13;;;17.03;;
15183;SDS011;7693;49.266;7.104;2023-03-21T07:09:07;27.03;;;19.40;;
15183;SDS011;7693;49.266;7.104;2023-03-21T07:11:34;27.07;;;21.63;;
15183;SDS011;7693;49.266;7.104;2023-03-21T07:14:00;23.27;;;18.90;;
15183;SDS011;7693;49.266;7.104;2023-03-21T07:16:26;22.30;;;20.10;;
15183;SDS011;7693;49.266;7.104;2023-03-21T07:18:51;25.07;;;19.43;;
15183;SDS011;7693;49.266;7.104;2023-03-21T07:21:17;22.30;;;19.93;;
15183;SDS011;7693;49.266;7.104;2023-03-21T07:23:43;20.67;;;18.07;;
15183;SDS011;7693;49.266;7.104;2023-03-21T07:26:08;22.13;;;15.10;;
15183;SDS011;7693;49.266;7.104;2023-03-21T07:28:34;16.20;;;13.03;;
15183;SDS011;7693;49.266;7.104;2023-03-21T07:31:01;22.60;;;11.20;;
15183;SDS011;7693;49.266;7.104;2023-03-21T07:33:29;17.73;;;12.07;;
15183;SDS011;7693;49.266;7.104;2023-03-21T07:35:56;16.73;;;13.07;;
15183;SDS011;7693;49.266;7.104;2023-03-21T07:38:22;15.43;;;13.53;;
15183;SDS011;7693;49.266;7.104;2023-03-21T07:40:48;16.63;;;14.67;;
15183;SDS011;7693;49.266;7.104;2023-03-21T07:43:14;19.93;;;15.17;;
15183;SDS011;7693;49.266;7.104;2023-03-21T07:45:40;18.47;;;16.67;;
15183;SDS011;7693;49.266;7.104;2023-03-21T07:48:07;22.77;;;20.43;;
15183;SDS011;7693;49.266;7.104;2023-03-21T07:50:34;21.07;;;18.93;;
15183;SDS011;7693;49.266;7.104;2023-03-21T07:53:00;21.93;;;19.73;;
15183;SDS011;7693;49.266;7.104;2023-03-21T07:55:26;22.93;;;20.63;;
15183;SDS011;7693;49.266;7.104;2023-03-21T07:57:52;25.13;;;22.53;;
15183;SDS011;7693;49.266;7.104;2023-03-21T08:00:18;24.80;;;22.00;;
15183;SDS011;7693;49.266;7.104;2023-03-21T08:02:49;26.33;;;19.87;;
15183;SDS011;7693;49.266;7.104;2023-03-21T08:05:18;22.53;;;20.27;;
15183;SDS011;7693;49.266;7.104;2023-03-21T08:07:48;29.43;;;21.83;;
15183;SDS011;7693;49.266;7.104;2023-03-21T08:10:14;20.77;;;18.53;;
15183;SDS011;7693;49.266;7.104;2023-03-21T08:12:40;10.13;;;9.13;;
15183;SDS011;7693;49.266;7.104;2023-03-21T08:15:06;9.27;;;8.47;;
15183;SDS011;7693;49.266;7.104;2023-03-21T08:17:32;9.47;;;8.53;;
15183;SDS011;7693;49.266;7.104;2023-03-21T08:20:00;14.70;;;13.33;;
15183;SDS011;7693;49.266;7.104;2023-03-21T08:22:25;10.43;;;7.47;;
15183;SDS011;7693;49.266;7.104;2023-03-21T08:24:51;7.87;;;6.60;;
15183;SDS011;7693;49.266;7.104;2023-03-21T08:27:16;6.63;;;5.93;;
15183;SDS011;7693;49.266;7.104;2023-03-21T08:29:44;7.80;;;6.93;;
15183;SDS011;7693;49.266;7.104;2023-03-21T08:32:10;6.30;;;5.70;;
15183;SDS011;7693;49.266;7.104;2023-03-21T08:34:35;9.37;;;7.23;;
15183;SDS011;7693;49.266;7.104;2023-03-21T08:37:01;5.83;;;4.70;;
15183;SDS011;7693;49.266;7.104;2023-03-21T08:39:27;4.30;;;4.00;;
15183;SDS011;7693;49.266;7.104;2023-03-21T08:41:53;5.47;;;4.53;;
15183;SDS011;7693;49.266;7.104;2023-03-21T08:44:19;5.40;;;4.87;;
15183;SDS011;7693;49.266;7.104;2023-03-21T08:46:46;5.17;;;4.40;;
15183;SDS011;7693;49.266;7.104;2023-03-21T08:49:11;4.33;;;4.13;;
15183;SDS011;7693;49.266;7.104;2023-03-21T08:51:37;4.10;;;3.80;;
15183;SDS011;7693;49.266;7.104;2023-03-21T08:54:02;4.30;;;3.93;;
15183;SDS011;7693;49.266;7.104;2023-03-21T08:56:28;4.40;;;3.93;;
15183;SDS011;7693;49.266;7.104;2023-03-21T08:58:54;4.00;;;3.70;;
15183;SDS011;7693;49.266;7.104;2023-03-21T09:01:19;4.93;;;4.40;;
15183;SDS011;7693;49.266;7.104;2023-03-21T09:03:45;4.67;;;4.00;;
15183;SDS011;7693;49.266;7.104;2023-03-21T09:06:11;3.70;;;3.57;;
15183;SDS011;7693;49.266;7.104;2023-03-21T09:08:38;4.27;;;3.97;;
15183;SDS011;7693;49.266;7.104;2023-03-21T09:11:06;5.03;;;3.90;;
15183;SDS011;7693;49.266;7.104;2023-03-21T09:13:32;4.60;;;4.30;;
15183;SDS011;7693;49.266;7.104;2023-03-21T09:15:57;4.90;;;4.53;;
15183;SDS011;7693;49.266;7.104;2023-03-21T09:18:25;5.47;;;3.87;;
15183;SDS011;7693;49.266;7.104;2023-03-21T09:21:09;4.07;;;3.87;;
15183;SDS011;7693;49.266;7.104;2023-03-21T09:23:39;4.13;;;3.93;;
15183;SDS011;7693;49.266;7.104;2023-03-21T09:26:05;4.67;;;4.37;;
15183;SDS011;7693;49.266;7.104;2023-03-21T09:28:33;4.07;;;3.87;;
15183;SDS011;7693;49.266;7.104;2023-03-21T09:31:00;4.03;;;3.83;;
15183;SDS011;7693;49.266;7.104;2023-03-21T09:33:28;4.80;;;4.50;;
15183;SDS011;7693;49.266;7.104;2023-03-21T09:35:55;3.90;;;3.60;;
15183;SDS011;7693;49.266;7.104;2023-03-21T09:38:22;5.10;;;3.90;;
15183;SDS011;7693;49.266;7.104;2023-03-21T09:41:06;4.27;;;3.90;;
15183;SDS011;7693;49.266;7.104;2023-03-21T09:49:34;4.90;;;3.97;;
15183;SDS011;7693;49.266;7.104;2023-03-21T09:52:08;3.77;;;3.47;;
15183;SDS011;7693;49.266;7.104;2023-03-21T09:54:47;4.00;;;3.70;;
15183;SDS011;7693;49.266;7.104;2023-03-21T09:59:45;5.00;;;3.97;;
15183;SDS011;7693;49.266;7.104;2023-03-21T10:04:43;3.90;;;3.70;;
15183;SDS011;7693;49.266;7.104;2023-03-21T10:07:10;5.93;;;3.90;;
15183;SDS011;7693;49.266;7.104;2023-03-21T10:09:43;4.03;;;3.70;;
15183;SDS011;7693;49.266;7.104;2023-03-21T10:12:15;4.33;;;3.97;;
15183;SDS011;7693;49.266;7.104;2023-03-21T10:14:52;3.90;;;3.70;;
15183;SDS011;7693;49.266;7.104;2023-03-21T10:17:26;4.27;;;4.07;;
15183;SDS011;7693;49.266;7.104;2023-03-21T10:20:13;4.63;;;4.03;;
15183;SDS011;7693;49.266;7.104;2023-03-21T10:22:45;4.53;;;4.20;;
15183;SDS011;7693;49.266;7.104;2023-03-21T10:25:15;4.47;;;4.10;;
15183;SDS011;7693;49.266;7.104;2023-03-21T10:27:43;4.30;;;4.00;;
15183;SDS011;7693;49.266;7.104;2023-03-21T10:30:34;4.77;;;4.40;;
15183;SDS011;7693;49.266;7.104;2023-03-21T10:32:58;5.90;;;4.70;;
15183;SDS011;7693;49.266;7.104;2023-03-21T10:35:29;4.30;;;4.00;;
15183;SDS011;7693;49.266;7.104;2023-03-21T10:38:00;3.97;;;3.67;;
15183;SDS011;7693;49.266;7.104;2023-03-21T10:40:27;4.93;;;4.43;;
15183;SDS011;7693;49.266;7.104;2023-03-21T10:42:56;5.07;;;4.60;;
15183;SDS011;7693;49.266;7.104;2023-03-21T10:45:40;4.23;;;3.83;;
15183;SDS011;7693;49.266;7.104;2023-03-21T10:48:08;4.50;;;4.20;;
15183;SDS011;7693;49.266;7.104;2023-03-21T10:50:34;4.47;;;4.27;;
15183;SDS011;7693;49.266;7.104;2023-03-21T10:53:00;5.20;;;4.77;;
15183;SDS011;7693;49.266;7.104;2023-03-21T10:55:31;6.83;;;5.70;;
15183;SDS011;7693;49.266;7.104;2023-03-21T10:57:59;6.03;;;4.73;;
15183;SDS011;7693;49.266;7.104;2023-03-21T14:06:02;4.07;;;3.77;;
15183;SDS011;7693;49.266;7.104;2023-03-21T14:08:28;3.93;;;3.30;;
15183;SDS011;7693;49.266;7.104;2023-03-21T14:11:04;3.30;;;3.10;;
15183;SDS011;7693;49.266;7.104;2023-03-21T14:13:31;3.30;;;3.10;;
15183;SDS011;7693;49.266;7.104;2023-03-21T14:16:09;3.23;;;2.97;;
15183;SDS011;7693;49.266;7.104;2023-03-21T14:18:40;2.70;;;2.60;;
15183;SDS011;7693;49.266;7.104;2023-03-21T14:21:17;3.27;;;3.00;;
15183;SDS011;7693;49.266;7.104;2023-03-21T14:23:46;3.17;;;2.97;;
15183;SDS011;7693;49.266;7.104;2023-03-21T14:26:18;2.80;;;2.70;;
15183;SDS011;7693;49.266;7.104;2023-03-21T14:28:45;3.23;;;3.03;;
15183;SDS011;7693;49.266;7.104;2023-03-21T14:31:14;4.03;;;3.73;;
15183;SDS011;7693;49.266;7.104;2023-03-21T14:33:44;2.63;;;2.53;;
15183;SDS011;7693;49.266;7.104;2023-03-21T14:36:17;3.00;;;2.80;;
15183;SDS011;7693;49.266;7.104;2023-03-21T14:39:04;2.87;;;2.77;;
15183;SDS011;7693;49.266;7.104;2023-03-21T14:41:50;3.00;;;2.80;;
15183;SDS011;7693;49.266;7.104;2023-03-21T14:47:03;4.13;;;2.83;;
15183;SDS011;7693;49.266;7.104;2023-03-21T14:49:31;4.77;;;3.00;;
15183;SDS011;7693;49.266;7.104;2023-03-21T14:52:03;2.87;;;2.60;;
15183;SDS011;7693;49.266;7.104;2023-03-21T14:54:47;3.07;;;2.87;;
15183;SDS011;7693;49.266;7.104;2023-03-21T14:57:14;2.53;;;2.40;;
15183;SDS011;7693;49.266;7.104;2023-03-21T14:59:46;6.03;;;2.70;;
15183;SDS011;7693;49.266;7.104;2023-03-21T15:02:24;2.57;;;2.47;;
15183;SDS011;7693;49.266;7.104;2023-03-21T15:04:56;2.60;;;2.50;;
15183;SDS011;7693;49.266;7.104;2023-03-21T15:07:30;4.07;;;2.47;;
15183;SDS011;7693;49.266;7.104;2023-03-21T15:09:58;3.73;;;3.43;;
15183;SDS011;7693;49.266;7.104;2023-03-21T15:12:32;2.40;;;2.30;;
15183;SDS011;7693;49.266;7.104;2023-03-21T15:14:58;2.50;;;2.40;;
15183;SDS011;7693;49.266;7.104;2023-03-21T15:17:25;2.93;;;2.30;;
15183;SDS011;7693;49.266;7.104;2023-03-21T15:19:51;2.63;;;2.50;;
15183;SDS011;7693;49.266;7.104;2023-03-21T15:22:29;2.70;;;2.60;;
15183;SDS011;7693;49.266;7.104;2023-03-21T15:24:58;2.80;;;2.60;;
15183;SDS011;7693;49.266;7.104;2023-03-21T15:27:31;2.70;;;2.50;;
15183;SDS011;7693;49.266;7.104;2023-03-21T15:30:01;2.90;;;2.70;;
15183;SDS011;7693;49.266;7.104;2023-03-21T15:32:27;2.67;;;2.47;;
15183;SDS011;7693;49.266;7.104;2023-03-21T15:34:54;5.37;;;4.83;;
15183;SDS011;7693;49.266;7.104;2023-03-21T15:37:27;2.40;;;2.20;;
15183;SDS011;7693;49.266;7.104;2023-03-21T15:42:39;3.00;;;2.70;;
15183;SDS011;7693;49.266;7.104;2023-03-21T15:45:14;2.43;;;2.23;;
15183;SDS011;7693;49.266;7.104;2023-03-21T15:50:20;2.83;;;2.37;;
15183;SDS011;7693;49.266;7.104;2023-03-21T15:52:47;4.87;;;3.60;;
15183;SDS011;7693;49.266;7.104;2023-03-21T15:55:19;2.80;;;2.30;;
15183;SDS011;7693;49.266;7.104;2023-03-21T15:57:50;4.00;;;2.63;;
15183;SDS011;7693;49.266;7.104;2023-03-21T16:00:23;2.23;;;2.13;;
15183;SDS011;7693;49.266;7.104;2023-03-21T16:03:01;2.27;;;2.17;;
15183;SDS011;7693;49.266;7.104;2023-03-21T16:05:33;2.90;;;2.70;;
15183;SDS011;7693;49.266;7.104;2023-03-21T16:08:03;2.30;;;2.20;;
15183;SDS011;7693;49.266;7.104;2023-03-21T16:10:46;2.90;;;2.30;;
15183;SDS011;7693;49.266;7.104;2023-03-21T16:13:13;2.80;;;2.60;;
15183;SDS011;7693;49.266;7.104;2023-03-21T16:15:38;2.70;;;2.50;;
15183;SDS011;7693;49.266;7.104;2023-03-21T16:18:05;2.83;;;2.63;;
15183;SDS011;7693;49.266;7.104;2023-03-21T16:20:33;2.40;;;2.30;;
15183;SDS011;7693;49.266;7.104;2023-03-21T16:23:04;3.50;;;2.50;;
15183;SDS011;7693;49.266;7.104;2023-03-21T16:25:29;2.60;;;2.50;;
15183;SDS011;7693;49.266;7.104;2023-03-21T16:27:57;3.57;;;2.50;;
15183;SDS011;7693;49.266;7.104;2023-03-21T16:30:23;2.40;;;2.30;;
15183;SDS011;7693;49.266;7.104;2023-03-21T16:32:48;2.13;;;1.97;;
15183;SDS011;7693;49.266;7.104;2023-03-21T16:35:15;6.83;;;3.80;;
15183;SDS011;7693;49.266;7.104;2023-03-21T16:37:41;2.70;;;2.60;;
15183;SDS011;7693;49.266;7.104;2023-03-21T16:40:20;2.37;;;2.27;;
15183;SDS011;7693;49.266;7.104;2023-03-21T16:42:57;2.33;;;2.23;;
15183;SDS011;7693;49.266;7.104;2023-03-21T16:45:23;3.20;;;3.00;;
15183;SDS011;7693;49.266;7.104;2023-03-21T16:47:49;2.60;;;2.27;;
15183;SDS011;7693;49.266;7.104;2023-03-21T16:50:29;2.87;;;2.50;;
15183;SDS011;7693;49.266;7.104;2023-03-21T16:52:55;2.60;;;2.47;;
15183;SDS011;7693;49.266;7.104;2023-03-21T16:55:22;2.87;;;2.67;;
15183;SDS011;7693;49.266;7.104;2023-03-21T16:57:48;2.63;;;2.50;;
15183;SDS011;7693;49.266;7.104;2023-03-21T17:00:23;2.37;;;2.27;;
15183;SDS011;7693;49.266;7.104;2023-03-21T17:02:51;3.80;;;3.50;;
15183;SDS011;7693;49.266;7.104;2023-03-21T17:05:19;4.43;;;3.00;;
15183;SDS011;7693;49.266;7.104;2023-03-21T17:07:50;3.03;;;2.40;;
15183;SDS011;7693;49.266;7.104;2023-03-21T17:10:17;2.63;;;2.53;;
15183;SDS011;7693;49.266;7.104;2023-03-21T17:12:45;3.00;;;2.70;;
15183;SDS011;7693;49.266;7.104;2023-03-21T17:15:11;4.77;;;2.57;;
15183;SDS011;7693;49.266;7.104;2023-03-21T17:17:37;3.67;;;3.37;;
15183;SDS011;7693;49.266;7.104;2023-03-21T17:20:10;3.13;;;3.00;;
15183;SDS011;7693;49.266;7.104;2023-03-21T17:22:49;3.57;;;2.70;;
15183;SDS011;7693;49.266;7.104;2023-03-21T17:25:15;3.37;;;3.07;;
15183;SDS011;7693;49.266;7.104;2023-03-21T17:27:42;3.20;;;2.80;;
15183;SDS011;7693;49.266;7.104;2023-03-21T17:30:18;3.30;;;3.10;;
15183;SDS011;7693;49.266;7.104;2023-03-21T17:32:50;3.30;;;3.10;;
15183;SDS011;7693;49.266;7.104;2023-03-21T17:35:16;5.10;;;4.10;;
15183;SDS011;7693;49.266;7.104;2023-03-21T17:37:43;4.50;;;4.20;;
15183;SDS011;7693;49.266;7.104;2023-03-21T17:40:20;3.13;;;2.93;;
15183;SDS011;7693;49.266;7.104;2023-03-21T17:42:47;3.53;;;3.23;;
15183;SDS011;7693;49.266;7.104;2023-03-21T17:45:14;3.47;;;2.87;;
15183;SDS011;7693;49.266;7.104;2023-03-21T17:47:39;3.10;;;2.97;;
15183;SDS011;7693;49.266;7.104;2023-03-21T17:50:10;3.03;;;2.87;;
15183;SDS011;7693;49.266;7.104;2023-03-21T17:52:38;4.43;;;3.67;;
15183;SDS011;7693;49.266;7.104;2023-03-21T17:55:04;3.90;;;3.60;;
15183;SDS011;7693;49.266;7.104;2023-03-21T17:57:30;4.77;;;3.67;;
15183;SDS011;7693;49.266;7.104;2023-03-21T17:59:55;3.70;;;3.50;;
15183;SDS011;7693;49.266;7.104;2023-03-21T18:02:21;3.67;;;3.33;;
15183;SDS011;7693;49.266;7.104;2023-03-21T18:04:47;3.90;;;3.60;;
15183;SDS011;7693;49.266;7.104;2023-03-21T18:07:13;4.03;;;3.63;;
15183;SDS011;7693;49.266;7.104;2023-03-21T18:09:39;4.23;;;3.40;;
15183;SDS011;7693;49.266;7.104;2023-03-21T18:12:05;3.90;;;3.70;;
15183;SDS011;7693;49.266;7.104;2023-03-21T18:14:30;5.40;;;4.97;;
15183;SDS011;7693;49.266;7.104;2023-03-21T18:16:56;4.97;;;4.47;;
15183;SDS011;7693;49.266;7.104;2023-03-21T18:19:21;4.80;;;4.40;;
15183;SDS011;7693;49.266;7.104;2023-03-21T18:21:47;4.30;;;4.00;;
15183;SDS011;7693;49.266;7.104;2023-03-21T18:24:13;4.60;;;4.30;;
15183;SDS011;7693;49.266;7.104;2023-03-21T18:26:39;5.97;;;4.33;;
15183;SDS011;7693;49.266;7.104;2023-03-21T18:29:05;4.17;;;3.87;;
15183;SDS011;7693;49.266;7.104;2023-03-21T18:31:31;5.00;;;4.57;;
15183;SDS011;7693;49.266;7.104;2023-03-21T18:33:56;5.10;;;4.67;;
15183;SDS011;7693;49.266;7.104;2023-03-21T18:36:23;6.07;;;5.50;;
15183;SDS011;7693;49.266;7.104;2023-03-21T18:38:49;6.10;;;5.60;;
15183;SDS011;7693;49.266;7.104;2023-03-21T18:41:15;6.33;;;5.63;;
15183;SDS011;7693;49.266;7.104;2023-03-21T18:43:44;8.80;;;5.07;;
15183;SDS011;7693;49.266;7.104;2023-03-21T18:46:10;6.10;;;5.60;;
15183;SDS011;7693;49.266;7.104;2023-03-21T18:48:36;5.20;;;4.70;;
15183;SDS011;7693;49.266;7.104;2023-03-21T18:51:02;8.23;;;6.77;;
15183;SDS011;7693;49.266;7.104;2023-03-21T18:53:28;5.13;;;4.63;;
15183;SDS011;7693;49.266;7.104;2023-03-21T18:55:54;5.20;;;4.63;;
15183;SDS011;7693;49.266;7.104;2023-03-21T18:58:19;6.43;;;4.47;;
15183;SDS011;7693;49.266;7.104;2023-03-21T19:00:45;6.40;;;4.97;;
15183;SDS011;7693;49.266;7.104;2023-03-21T19:03:11;4.23;;;3.93;;
15183;SDS011;7693;49.266;7.104;2023-03-21T19:05:38;13.13;;;9.77;;
15183;SDS011;7693;49.266;7.104;2023-03-21T19:08:05;6.87;;;6.13;;
15183;SDS011;7693;49.266;7.104;2023-03-21T19:10:31;7.43;;;6.70;;
15183;SDS011;7693;49.266;7.104;2023-03-21T19:12:57;7.17;;;6.37;;
15183;SDS011;7693;49.266;7.104;2023-03-21T19:15:23;5.83;;;5.03;;
15183;SDS011;7693;49.266;7.104;2023-03-21T19:17:49;5.80;;;5.30;;
15183;SDS011;7693;49.266;7.104;2023-03-21T19:20:16;5.40;;;4.70;;
15183;SDS011;7693;49.266;7.104;2023-03-21T19:22:42;4.90;;;4.60;;
15183;SDS011;7693;49.266;7.104;2023-03-21T19:25:09;6.73;;;5.30;;
15183;SDS011;7693;49.266;7.104;2023-03-21T19:27:36;10.20;;;5.27;;
15183;SDS011;7693;49.266;7.104;2023-03-21T19:30:03;5.33;;;4.83;;
15183;SDS011;7693;49.266;7.104;2023-03-21T19:32:31;5.13;;;4.40;;
15183;SDS011;7693;49.266;7.104;2023-03-21T19:34:57;5.67;;;4.40;;
15183;SDS011;7693;49.266;7.104;2023-03-21T19:37:22;5.57;;;5.00;;
15183;SDS011;7693;49.266;7.104;2023-03-21T19:39:48;4.97;;;4.63;;
15183;SDS011;7693;49.266;7.104;2023-03-21T19:42:13;4.97;;;4.63;;
15183;SDS011;7693;49.266;7.104;2023-03-21T19:44:39;5.13;;;4.80;;
15183;SDS011;7693;49.266;7.104;2023-03-21T19:47:05;5.73;;;4.23;;